Time;durP1;ratioP1;P1;durP2;ratioP2;P2;SDS_P1;SDS_P2;PMS_P1;PMS_P2;Temp;Humidity;BMP_temperature;BMP_pressure;BME280_temperature;BME280_humidity;BME280_pressure;Samples;Min_cycle;Max_cycle;Signal;HPM_P1;HPM_P2
2021/08/22 00:00:50;;;;;;;1999.90;999.90;;;;;;;19.86;62.43;101312.50;15624783;28;20072;-59
2021/08/22 00:08:22;;;;;;;1999.90;999.90;;;;;;;19.67;63.49;101301.28;15624290;28;20083;-60
2021/08/22 00:15:56;;;;;;;1999.90;999.90;;;;;;;19.53;63.88;101302.66;15623918;28;20076;-59
2021/08/22 00:23:29;;;;;;;1999.90;999.90;;;;;;;19.62;63.65;101299.59;15621797;28;20124;-59
2021/08/22 00:31:02;;;;;;;1999.90;999.90;;;;;;;19.48;63.56;101286.00;15622714;28;20056;-58
2021/08/22 00:38:34;;;;;;;1999.90;999.90;;;;;;;19.30;64.22;101293.41;15616821;28;20297;-59
2021/08/22 00:46:10;;;;;;;1999.90;999.90;;;;;;;19.29;64.40;101291.75;15622659;28;20037;-61
2021/08/22 00:53:43;;;;;;;1999.90;999.90;;;;;;;19.28;64.60;101270.31;15622663;28;20580;-59
2021/08/22 01:01:21;;;;;;;1999.90;999.90;;;;;;;19.11;64.99;101260.34;15622195;28;20111;-62
2021/08/22 01:08:59;;;;;;;1999.90;999.90;;;;;;;19.15;64.89;101269.69;15620698;28;20060;-59
2021/08/22 01:16:37;;;;;;;1999.90;999.90;;;;;;;18.91;65.32;101264.41;15620765;28;20442;-60
2021/08/22 01:24:09;;;;;;;1999.90;999.90;;;;;;;18.92;65.22;101255.56;15619070;28;20045;-62
2021/08/22 01:31:47;;;;;;;1999.90;999.90;;;;;;;18.94;65.04;101253.16;15616379;28;20531;-60
2021/08/22 01:39:21;;;;;;;1999.90;999.90;;;;;;;18.93;64.87;101242.25;15591025;28;20502;-60
2021/08/22 01:46:59;;;;;;;1999.90;999.90;;;;;;;18.67;65.81;101224.03;15620472;28;20072;-60
2021/08/22 01:54:35;;;;;;;1999.90;999.90;;;;;;;18.74;65.69;101220.50;15621171;28;20510;-60
2021/08/22 02:02:08;;;;;;;1999.90;999.90;;;;;;;18.78;65.35;101212.91;15620806;28;20045;-61
2021/08/22 02:09:50;;;;;;;1999.90;999.90;;;;;;;18.84;65.40;101196.44;15621611;28;20504;-59
2021/08/22 02:17:24;;;;;;;1999.90;999.90;;;;;;;18.69;65.59;101196.19;15564907;28;20053;-60
2021/08/22 02:24:58;;;;;;;1999.90;999.90;;;;;;;18.83;65.12;101203.28;15616440;28;20402;-61
2021/08/22 02:32:31;;;;;;;1999.90;999.90;;;;;;;18.75;65.24;101200.31;15607520;28;20071;-60
2021/08/22 02:40:06;;;;;;;1999.90;999.90;;;;;;;18.70;65.33;101182.88;15606406;28;20133;-60
2021/08/22 02:47:38;;;;;;;1999.90;999.90;;;;;;;18.57;65.64;101190.69;15621750;28;20300;-61
2021/08/22 02:55:12;;;;;;;1999.90;999.90;;;;;;;18.65;65.66;101194.47;15615294;28;20045;-60
2021/08/22 03:02:44;;;;;;;1999.90;999.90;;;;;;;18.57;65.86;101192.72;15614020;28;20104;-61
2021/08/22 03:10:18;;;;;;;;;;;;;;;18.36;66.26;101188.28;15614254;28;20037;-59
2021/08/22 03:17:52;;;;;;;1999.90;999.90;;;;;;;18.38;66.17;101202.03;15597283;28;19921;-59
2021/08/22 03:25:25;;;;;;;1999.90;999.90;;;;;;;18.36;66.35;101201.59;15614404;28;20045;-61
2021/08/22 03:32:58;;;;;;;1999.90;999.90;;;;;;;18.34;65.94;101204.81;15611749;28;20073;-60
2021/08/22 03:40:31;;;;;;;1999.90;999.90;;;;;;;18.33;66.38;101202.34;15604704;28;20049;-60
2021/08/22 03:48:05;;;;;;;1999.90;999.90;;;;;;;18.14;66.91;101200.38;15624632;28;20042;-61
2021/08/22 03:55:38;;;;;;;;;;;;;;;18.09;66.59;101187.34;15607356;28;20054;-60
2021/08/22 04:03:10;;;;;;;1999.90;999.90;;;;;;;17.99;66.61;101178.66;15625661;28;20370;-61
2021/08/22 04:11:16;;;;;;;1999.90;999.90;;;;;;;18.09;66.70;101178.88;15624130;28;20057;-61
2021/08/22 04:18:48;;;;;;;1999.90;999.90;;;;;;;17.97;66.57;101176.22;15624413;28;20049;-60
2021/08/22 04:26:25;;;;;;;1999.90;999.90;;;;;;;18.07;66.24;101167.16;15623305;28;20120;-60
2021/08/22 04:33:58;;;;;;;1999.90;999.90;;;;;;;18.00;66.11;101152.06;15607901;28;20563;-61
2021/08/22 04:41:31;;;;;;;1999.90;999.90;;;;;;;17.95;66.12;101141.09;15624371;28;20556;-59
2021/08/22 04:49:06;;;;;;;1999.90;999.90;;;;;;;18.09;65.44;101141.34;15623301;28;20542;-60
2021/08/22 04:56:56;;;;;;;1999.90;999.90;;;;;;;18.16;65.30;101133.03;15621987;28;20409;-60
2021/08/22 05:04:29;;;;;;;1999.90;999.90;;;;;;;18.53;64.50;101143.78;15630185;28;20414;-58
2021/08/22 05:12:03;;;;;;;1999.90;999.90;;;;;;;18.68;63.92;101134.38;15635370;28;20482;-59
2021/08/22 05:19:36;;;;;;;1999.90;999.90;;;;;;;18.82;63.59;101147.94;15632515;28;20387;-60
2021/08/22 05:27:10;;;;;;;;;;;;;;;19.17;62.33;101142.81;15621084;28;20037;-59
2021/08/22 05:34:42;;;;;;;1999.90;999.90;;;;;;;19.26;61.92;101151.84;15605989;28;19925;-60
2021/08/22 05:42:15;;;;;;;1999.90;999.90;;;;;;;19.71;61.13;101140.78;15620872;28;20468;-58
2021/08/22 05:49:48;;;;;;;1999.90;999.90;;;;;;;19.91;60.24;101147.09;15617036;28;20050;-56
2021/08/22 05:57:22;;;;;;;1999.90;999.90;;;;;;;19.89;60.09;101145.44;15617802;28;20132;-58
2021/08/22 06:04:54;;;;;;;1999.90;999.90;;;;;;;20.11;59.72;101132.38;15616491;28;20132;-57
2021/08/22 06:12:28;;;;;;;1999.90;999.90;;;;;;;19.93;59.53;101133.38;15599037;28;20510;-58
2021/08/22 06:20:03;;;;;;;1999.90;999.90;;;;;;;19.89;59.60;101134.13;15616468;28;20041;-58
2021/08/22 06:27:37;;;;;;;1999.90;999.90;;;;;;;20.11;59.22;101126.69;15615122;28;20129;-59
2021/08/22 06:35:10;;;;;;;1999.90;999.90;;;;;;;20.71;58.86;101122.81;15596254;28;20049;-60
2021/08/22 06:42:43;;;;;;;1999.90;999.90;;;;;;;21.23;56.04;101130.09;15615988;28;20049;-57
2021/08/22 06:50:51;;;;;;;1999.90;999.90;;;;;;;20.92;56.90;101122.16;15615704;28;20049;-59
2021/08/22 06:58:43;;;;;;;1999.90;999.90;;;;;;;21.50;56.27;101116.50;15615286;28;20042;-59
2021/08/22 07:06:16;;;;;;;1999.90;999.90;;;;;;;21.01;56.93;101108.47;15626014;28;20526;-60
2021/08/22 07:14:13;;;;;;;1999.90;999.90;;;;;;;21.17;56.37;101108.16;15620682;28;20033;-61
2021/08/22 07:21:46;;;;;;;1999.90;999.90;;;;;;;21.16;57.08;101109.38;15611940;28;20050;-60
2021/08/22 07:29:28;;;;;;;1999.90;999.90;;;;;;;21.76;55.90;101095.50;15626293;28;20121;-61
2021/08/22 07:37:01;;;;;;;1999.90;999.90;;;;;;;22.26;54.47;101097.66;15607318;28;20107;-61
2021/08/22 07:44:37;;;;;;;1999.90;999.90;;;;;;;22.47;54.30;101098.50;15608861;28;20057;-59
2021/08/22 07:52:09;;;;;;;1999.90;999.90;;;;;;;22.41;54.55;101105.81;15612686;28;20132;-61
2021/08/22 07:59:43;;;;;;;1999.90;999.90;;;;;;;22.03;55.00;101100.84;15619590;28;20128;-61
2021/08/22 08:07:15;;;;;;;1999.90;999.90;;;;;;;22.27;55.19;101105.78;15623220;28;20069;-61
2021/08/22 08:14:49;;;;;;;1999.90;999.90;;;;;;;22.58;54.36;101101.34;15625167;28;20049;-58
2021/08/22 08:22:23;;;;;;;1999.90;999.90;;;;;;;23.48;52.99;101102.84;15623953;28;20037;-60
2021/08/22 08:29:57;;;;;;;1999.90;999.90;;;;;;;23.61;52.21;101104.06;15623861;28;20049;-59
2021/08/22 08:37:29;;;;;;;1999.90;999.90;;;;;;;23.80;52.69;101099.09;15599538;28;20053;-60
2021/08/22 08:45:03;;;;;;;1999.90;999.90;;;;;;;23.29;52.92;101104.13;15623145;28;20418;-59
2021/08/22 08:52:40;;;;;;;1999.90;999.90;;;;;;;23.47;53.20;101103.28;15621198;28;20049;-59
2021/08/22 09:00:15;;;;;;;1999.90;999.90;;;;;;;23.63;52.60;101094.28;15616230;28;20037;-60
2021/08/22 09:08:28;;;;;;;1999.90;999.90;;;;;;;23.80;52.41;101094.19;15617009;28;20057;-60
2021/08/22 09:24:50;;;;;;;1999.90;999.90;;;;;;;24.16;51.35;101091.13;15984031;27;21017;-60
2021/08/22 09:33:00;;;;;;;1999.90;999.90;;;;;;;23.92;53.09;101090.06;15923539;27;20096;-58
2021/08/22 09:41:10;;;;;;;1999.90;999.90;;;;;;;23.96;52.23;101102.25;15927358;27;20035;-59
2021/08/22 09:49:29;;;;;;;1999.90;999.90;;;;;;;23.69;53.05;101124.78;15945346;27;20042;-59
2021/08/22 09:57:39;;;;;;;1999.90;999.90;;;;;;;23.64;53.41;101152.88;15935451;27;20110;-58
2021/08/22 10:05:37;;;;;;;1999.90;999.90;;;;;;;23.83;52.93;101138.16;15936897;27;20047;-57
2021/08/22 10:13:10;;;;;;;1999.90;999.90;;;;;;;23.04;58.73;101132.66;15923332;27;20047;-60
2021/08/22 10:21:22;;;;;;;1999.90;999.90;;;;;;;22.92;60.91;101135.09;15894460;27;20051;-60
2021/08/22 10:29:07;;;;;;;1999.90;999.90;;;;;;;22.73;64.24;101136.31;15868829;27;20308;-58
2021/08/22 10:36:48;;;;;;;1999.90;999.90;;;;;;;22.36;65.66;101133.81;15882218;27;20058;-59
2021/08/22 10:44:41;;;;;;;1999.90;999.90;;;;;;;21.83;72.80;101135.28;15813893;27;20067;-60
2021/08/22 10:52:22;;;;;;;1999.90;999.90;;;;;;;22.05;73.16;101115.47;15895975;27;20120;-60
2021/08/22 11:00:09;;;;;;;1999.90;999.90;;;;;;;;;;15885222;27;20818;-61
2021/08/22 11:07:43;;;;;;;1999.90;999.90;;;;;;;21.94;74.25;101123.16;15873229;27;20039;-62
2021/08/22 11:15:27;;;;;;;1999.90;999.90;;;;;;;21.85;73.78;101121.50;15898358;27;20050;-60
2021/08/22 11:23:06;;;;;;;1999.90;999.90;;;;;;;22.09;74.36;101127.66;15909064;27;20042;-61
2021/08/22 11:30:42;;;;;;;1999.90;999.90;;;;;;;22.15;73.50;101111.88;15906377;27;20047;-59
2021/08/22 11:38:17;;;;;;;1999.90;999.90;;;;;;;22.21;75.06;101130.16;15898596;27;20044;-59
2021/08/22 11:45:49;;;;;;;1999.90;999.90;;;;;;;22.33;74.59;101148.88;15917770;27;20097;-61
2021/08/22 11:53:30;;;;;;;1999.90;999.90;;;;;;;22.18;74.07;101148.81;15890284;27;20097;-58
2021/08/22 12:01:12;;;;;;;1999.90;999.90;;;;;;;21.21;79.29;101112.66;15873629;27;20052;-61
2021/08/22 12:08:48;;;;;;;1999.90;999.90;;;;;;;21.76;76.80;101129.56;15867399;28;20070;-59
2021/08/22 12:16:28;;;;;;;1999.90;999.90;;;;;;;21.81;75.70;101137.72;15879611;27;20035;-60
2021/08/22 12:24:18;;;;;;;1999.90;999.90;;;;;;;21.71;76.06;101134.84;15942431;27;20100;-60
2021/08/22 12:31:52;;;;;;;1999.90;999.90;;;;;;;21.79;75.79;101145.03;15908122;27;20040;-59
2021/08/22 12:39:29;;;;;;;1999.90;999.90;;;;;;;21.77;75.72;101145.41;15835359;28;20608;-58
2021/08/22 12:47:07;;;;;;;1999.90;999.90;;;;;;;21.82;77.93;101135.69;15856716;27;20104;-60
2021/08/22 12:54:41;;;;;;;1999.90;999.90;;;;;;;22.59;74.35;101134.25;15851540;27;20790;-61
2021/08/22 13:02:13;;;;;;;1999.90;999.90;;;;;;;27.21;57.08;101142.16;15862997;27;20404;-61
2021/08/22 13:09:47;;;;;;;1999.90;999.90;;;;;;;29.67;53.67;101130.66;15881446;27;20100;-59
2021/08/22 13:17:22;;;;;;;1999.90;999.90;;;;;;;28.61;54.85;101135.09;15837494;28;20307;-61
2021/08/22 13:24:56;;;;;;;1999.90;999.90;;;;;;;26.75;58.54;101115.94;15864109;28;20567;-62
2021/08/22 13:32:28;;;;;;;1999.90;999.90;;;;;;;25.79;62.81;101100.22;15868871;28;20063;-62
2021/08/22 13:40:01;;;;;;;;;;;;;;;24.01;66.96;101098.97;15886759;28;20399;-60
2021/08/22 13:47:34;;;;;;;1999.90;999.90;;;;;;;24.58;66.82;101098.59;15886683;28;20443;-61
2021/08/22 13:55:09;;;;;;;1999.90;999.90;;;;;;;24.16;68.98;101100.50;15905173;28;20054;-61
2021/08/22 14:02:41;;;;;;;1999.90;999.90;;;;;;;23.93;67.96;101111.63;15882891;28;20131;-61
2021/08/22 14:10:15;;;;;;;1999.90;999.90;;;;;;;23.93;69.46;101100.22;15921460;27;20053;-61
2021/08/22 14:17:51;;;;;;;1999.90;999.90;;;;;;;23.46;70.60;101096.78;15878355;27;20507;-58
2021/08/22 14:25:25;;;;;;;1999.90;999.90;;;;;;;23.68;71.33;101091.00;15916682;27;20035;-61
2021/08/22 14:32:57;;;;;;;1999.90;999.90;;;;;;;23.50;72.43;101091.84;15905904;27;20125;-59
2021/08/22 14:40:31;;;;;;;1999.90;999.90;;;;;;;23.65;71.40;101084.09;15881309;27;20031;-59
2021/08/22 14:48:03;;;;;;;1999.90;999.90;;;;;;;23.33;71.54;101085.00;15893846;27;20499;-57
2021/08/22 14:55:37;;;;;;;1999.90;999.90;;;;;;;23.42;69.76;101072.38;15899640;27;20058;-60
2021/08/22 15:03:10;;;;;;;1999.90;999.90;;;;;;;23.12;71.37;101058.63;15877542;27;20039;-59
2021/08/22 15:10:44;;;;;;;1999.90;999.90;;;;;;;22.80;72.72;101070.03;15884743;27;20054;-59
2021/08/22 15:18:17;;;;;;;1999.90;999.90;;;;;;;23.12;72.58;101070.00;15874141;27;20300;-58
2021/08/22 15:25:50;;;;;;;;;;;;;;;22.79;73.22;101072.09;15918305;27;20036;-62
2021/08/22 15:33:22;;;;;;;1999.90;999.90;;;;;;;22.71;74.73;101085.50;15880200;27;19924;-61
2021/08/22 15:40:56;;;;;;;1999.90;999.90;;;;;;;23.01;71.50;101095.66;15895628;27;20074;-59
2021/08/22 15:48:29;;;;;;;1999.90;999.90;;;;;;;23.39;71.80;101093.13;15867393;27;20067;-59
2021/08/22 15:56:03;;;;;;;1999.90;999.90;;;;;;;23.32;73.06;101086.22;15863085;28;20044;-59
2021/08/22 16:03:35;;;;;;;1999.90;999.90;;;;;;;22.79;73.79;101062.72;15880604;22;20051;-61
2021/08/22 16:11:11;;;;;;;1999.90;999.90;;;;;;;22.92;72.92;101066.81;15876450;27;20487;-60
2021/08/22 16:18:43;;;;;;;1999.90;999.90;;;;;;;23.10;72.89;101070.44;15885319;27;20445;-58
2021/08/22 16:26:17;;;;;;;;;;;;;;;23.02;72.21;101077.34;15845963;27;20048;-59
2021/08/22 16:33:49;;;;;;;1999.90;999.90;;;;;;;22.78;74.54;101087.53;15904996;27;20414;-60
2021/08/22 16:41:23;;;;;;;1999.90;999.90;;;;;;;23.00;72.39;101074.91;15866109;27;20082;-61
2021/08/22 16:48:56;;;;;;;1999.90;999.90;;;;;;;22.57;73.26;101070.47;15853995;28;20043;-60
2021/08/22 16:56:29;;;;;;;1999.90;999.90;;;;;;;22.47;74.44;101057.88;15845279;28;20043;-60
2021/08/22 17:04:02;;;;;;;1999.90;999.90;;;;;;;22.01;75.32;101064.31;15844944;28;20172;-60
2021/08/22 17:11:37;;;;;;;1999.90;999.90;;;;;;;22.06;74.07;101060.25;15844590;28;20067;-61
2021/08/22 17:19:10;;;;;;;1999.90;999.90;;;;;;;21.89;74.28;101067.56;15862959;28;20047;-59
2021/08/22 17:26:43;;;;;;;1999.90;999.90;;;;;;;22.20;73.25;101071.69;15863670;28;20044;-59
2021/08/22 17:34:23;;;;;;;1999.90;999.90;;;;;;;22.06;74.85;101071.63;15839148;28;20040;-61
2021/08/22 17:41:59;;;;;;;1999.90;999.90;;;;;;;22.16;74.16;101077.34;15807014;28;20071;-61
2021/08/22 17:49:31;;;;;;;1999.90;999.90;;;;;;;21.75;76.39;101073.97;15812553;28;20077;-61
2021/08/22 17:57:08;;;;;;;1999.90;999.90;;;;;;;21.79;75.46;101080.50;15812889;28;20048;-61
2021/08/22 18:04:41;;;;;;;1999.90;999.90;;;;;;;21.50;76.50;101067.41;15793715;28;20073;-62
2021/08/22 18:12:14;;;;;;;1999.90;999.90;;;;;;;21.41;76.40;101079.13;15811503;28;20044;-62
2021/08/22 18:19:47;;;;;;;1999.90;999.90;;;;;;;21.27;76.87;101082.72;15809937;28;20040;-61
2021/08/22 18:27:20;;;;;;;1999.90;999.90;;;;;;;21.39;76.04;101081.56;15791919;28;20523;-61
2021/08/22 18:34:55;;;;;;;1999.90;999.90;;;;;;;21.27;76.27;101099.75;15839918;28;20048;-61
2021/08/22 18:42:28;;;;;;;1999.90;999.90;;;;;;;21.39;76.24;101092.91;15872514;28;20071;-61
2021/08/22 18:50:04;;;;;;;1999.90;999.90;;;;;;;21.16;76.93;101110.19;15854617;28;20302;-61
2021/08/22 18:57:38;;;;;;;1999.90;999.90;;;;;;;21.17;77.07;101108.97;15872856;28;20062;-60
2021/08/22 19:05:10;;;;;;;1999.90;999.90;;;;;;;21.16;77.53;101118.72;15854452;28;20043;-60
2021/08/22 19:12:44;;;;;;;1999.90;999.90;;;;;;;21.03;77.51;101112.53;15872074;28;20123;-60
2021/08/22 19:20:16;;;;;;;1999.90;999.90;;;;;;;20.88;77.86;101119.31;15871611;28;20130;-60
2021/08/22 19:27:53;;;;;;;1999.90;999.90;;;;;;;20.69;79.13;101131.72;15852673;28;20043;-60
2021/08/22 19:35:27;;;;;;;1999.90;999.90;;;;;;;20.96;77.47;101129.50;15851469;28;20294;-60
2021/08/22 19:43:02;;;;;;;1999.90;999.90;;;;;;;20.97;77.18;101130.31;15851260;28;20048;-61
2021/08/22 19:50:36;;;;;;;1999.90;999.90;;;;;;;20.93;77.41;101124.59;15851942;28;20115;-60
2021/08/22 19:58:10;;;;;;;1999.90;999.90;;;;;;;20.73;78.67;101134.56;15869692;28;20126;-60
2021/08/22 20:05:43;;;;;;;1999.90;999.90;;;;;;;20.81;78.10;101127.75;15868630;28;20418;-60
2021/08/22 20:13:17;;;;;;;1999.90;999.90;;;;;;;20.89;78.21;101125.81;15851519;28;20043;-60
2021/08/22 20:20:53;;;;;;;1999.90;999.90;;;;;;;20.86;78.25;101129.44;15866418;28;20075;-61
2021/08/22 20:28:27;;;;;;;1999.90;999.90;;;;;;;20.91;77.60;101131.88;15865725;28;20097;-61
2021/08/22 20:35:59;;;;;;;1999.90;999.90;;;;;;;20.81;77.57;101136.28;15829700;28;20048;-59
2021/08/22 20:43:33;;;;;;;1999.90;999.90;;;;;;;20.82;77.79;101131.41;15864728;28;20496;-61
2021/08/22 20:51:06;;;;;;;1999.90;999.90;;;;;;;20.72;77.65;101150.78;15873975;27;20040;-61
2021/08/22 20:58:40;;;;;;;1999.90;999.90;;;;;;;20.73;77.74;101151.59;15876667;27;20126;-59
2021/08/22 21:06:12;;;;;;;1999.90;999.90;;;;;;;20.76;77.58;101148.00;15858087;27;20056;-61
2021/08/22 21:13:46;;;;;;;1999.90;999.90;;;;;;;20.69;77.79;101145.91;15850270;27;20047;-60
2021/08/22 21:21:18;;;;;;;1999.90;999.90;;;;;;;20.72;77.95;101153.63;15869092;27;20031;-60
2021/08/22 21:28:52;;;;;;;1999.90;999.90;;;;;;;20.59;77.78;101145.81;15900884;28;20043;-60
2021/08/22 21:36:25;;;;;;;1999.90;999.90;;;;;;;20.58;78.33;101156.34;15849324;28;20043;-61
2021/08/22 21:43:58;;;;;;;1999.90;999.90;;;;;;;20.57;78.75;101151.88;15871178;28;20552;-61
2021/08/22 21:51:31;;;;;;;1999.90;999.90;;;;;;;20.66;78.23;101152.38;15894559;28;20047;-61
2021/08/22 21:59:04;;;;;;;1999.90;999.90;;;;;;;20.79;77.71;101140.72;15903270;28;20043;-61
2021/08/22 22:06:37;;;;;;;1999.90;999.90;;;;;;;20.54;78.90;101152.66;15781167;22;20521;-61
2021/08/22 22:14:10;;;;;;;1999.90;999.90;;;;;;;20.70;78.36;101158.06;15816852;28;20082;-63
2021/08/22 22:21:42;;;;;;;1999.90;999.90;;;;;;;20.66;78.52;101149.53;15819167;28;20063;-63
2021/08/22 22:29:16;;;;;;;1999.90;999.90;;;;;;;20.64;79.00;101140.59;15846136;28;20036;-63
2021/08/22 22:36:48;;;;;;;1999.90;999.90;;;;;;;20.79;78.14;101127.34;15775578;28;20048;-63
2021/08/22 22:44:21;;;;;;;1999.90;999.90;;;;;;;20.66;79.13;101146.69;15832193;28;20039;-63
2021/08/22 22:51:59;;;;;;;1999.90;999.90;;;;;;;20.64;79.11;101151.94;15813387;28;20043;-63
2021/08/22 22:59:33;;;;;;;1999.90;999.90;;;;;;;20.79;78.59;101161.38;15835534;28;20120;-62
2021/08/22 23:07:05;;;;;;;1999.90;999.90;;;;;;;20.79;78.97;101167.06;15788579;28;20135;-62
2021/08/22 23:14:39;;;;;;;1999.90;999.90;;;;;;;20.37;81.50;101165.41;15811631;28;20129;-62
2021/08/22 23:22:12;;;;;;;1999.90;999.90;;;;;;;20.11;83.69;101163.53;15785759;28;20076;-61
2021/08/22 23:29:45;;;;;;;1999.90;999.90;;;;;;;20.65;81.31;101153.56;15809596;28;20071;-63
2021/08/22 23:37:17;;;;;;;1999.90;999.90;;;;;;;20.27;83.84;101151.94;15842949;28;20058;-62
2021/08/22 23:44:51;;;;;;;1999.90;999.90;;;;;;;20.05;85.23;101167.91;15850746;28;20047;-62
2021/08/22 23:52:23;;;;;;;1999.90;999.90;;;;;;;19.67;86.87;101173.88;15828347;28;20485;-63
2021/08/22 23:59:57;;;;;;;1999.90;999.90;;;;;;;19.49;87.75;101187.78;15849042;28;20036;-61
